sensor_id;sensor_type;location;lat;lon;timestamp;P1;durP1;ratioP1;P2;durP2;ratioP2
59099;SDS011;44884;52.730;6.964;2024-02-21T00:01:42;21.48;;;10.07;;
59099;SDS011;44884;52.730;6.964;2024-02-21T00:04:08;17.33;;;9.48;;
59099;SDS011;44884;52.730;6.964;2024-02-21T00:06:34;12.60;;;9.45;;
59099;SDS011;44884;52.730;6.964;2024-02-21T00:09:00;17.65;;;9.73;;
59099;SDS011;44884;52.730;6.964;2024-02-21T00:11:26;18.05;;;9.68;;
59099;SDS011;44884;52.730;6.964;2024-02-21T00:13:52;15.35;;;10.75;;
59099;SDS011;44884;52.730;6.964;2024-02-21T00:16:18;16.83;;;9.52;;
59099;SDS011;44884;52.730;6.964;2024-02-21T00:18:45;15.48;;;10.60;;
59099;SDS011;44884;52.730;6.964;2024-02-21T00:21:11;20.08;;;10.00;;
59099;SDS011;44884;52.730;6.964;2024-02-21T00:23:42;17.25;;;10.15;;
59099;SDS011;44884;52.730;6.964;2024-02-21T00:26:11;12.70;;;9.52;;
59099;SDS011;44884;52.730;6.964;2024-02-21T00:28:37;12.10;;;9.23;;
59099;SDS011;44884;52.730;6.964;2024-02-21T00:31:03;17.88;;;9.73;;
59099;SDS011;44884;52.730;6.964;2024-02-21T00:33:30;11.85;;;8.50;;
59099;SDS011;44884;52.730;6.964;2024-02-21T00:35:56;14.80;;;10.60;;
59099;SDS011;44884;52.730;6.964;2024-02-21T00:38:22;11.95;;;9.35;;
59099;SDS011;44884;52.730;6.964;2024-02-21T00:40:48;11.60;;;9.30;;
59099;SDS011;44884;52.730;6.964;2024-02-21T00:43:14;18.65;;;9.02;;
59099;SDS011;44884;52.730;6.964;2024-02-21T00:45:40;15.90;;;10.52;;
59099;SDS011;44884;52.730;6.964;2024-02-21T00:48:06;15.00;;;9.65;;
59099;SDS011;44884;52.730;6.964;2024-02-21T00:50:32;12.75;;;8.82;;
59099;SDS011;44884;52.730;6.964;2024-02-21T00:52:58;18.67;;;9.43;;
59099;SDS011;44884;52.730;6.964;2024-02-21T00:55:24;16.88;;;9.40;;
59099;SDS011;44884;52.730;6.964;2024-02-21T00:57:50;14.50;;;8.82;;
59099;SDS011;44884;52.730;6.964;2024-02-21T01:00:16;14.23;;;9.98;;
59099;SDS011;44884;52.730;6.964;2024-02-21T01:02:42;14.82;;;9.00;;
59099;SDS011;44884;52.730;6.964;2024-02-21T01:05:08;14.18;;;9.32;;
59099;SDS011;44884;52.730;6.964;2024-02-21T01:07:35;17.98;;;9.15;;
59099;SDS011;44884;52.730;6.964;2024-02-21T01:10:01;14.45;;;9.05;;
59099;SDS011;44884;52.730;6.964;2024-02-21T01:12:27;13.80;;;9.73;;
59099;SDS011;44884;52.730;6.964;2024-02-21T01:14:53;18.00;;;9.50;;
59099;SDS011;44884;52.730;6.964;2024-02-21T01:17:19;19.13;;;10.60;;
59099;SDS011;44884;52.730;6.964;2024-02-21T01:19:46;11.60;;;8.90;;
59099;SDS011;44884;52.730;6.964;2024-02-21T01:22:12;16.70;;;10.13;;
59099;SDS011;44884;52.730;6.964;2024-02-21T01:24:38;12.13;;;8.95;;
59099;SDS011;44884;52.730;6.964;2024-02-21T01:27:04;15.82;;;10.32;;
59099;SDS011;44884;52.730;6.964;2024-02-21T01:29:30;13.95;;;9.52;;
59099;SDS011;44884;52.730;6.964;2024-02-21T01:31:59;16.75;;;10.30;;
59099;SDS011;44884;52.730;6.964;2024-02-21T01:34:25;13.88;;;9.50;;
59099;SDS011;44884;52.730;6.964;2024-02-21T01:36:51;12.40;;;9.23;;
59099;SDS011;44884;52.730;6.964;2024-02-21T01:39:17;15.93;;;10.02;;
59099;SDS011;44884;52.730;6.964;2024-02-21T01:41:43;14.52;;;10.05;;
59099;SDS011;44884;52.730;6.964;2024-02-21T01:44:09;17.33;;;10.80;;
59099;SDS011;44884;52.730;6.964;2024-02-21T01:46:35;19.08;;;10.93;;
59099;SDS011;44884;52.730;6.964;2024-02-21T01:49:02;13.02;;;8.65;;
59099;SDS011;44884;52.730;6.964;2024-02-21T01:51:29;15.65;;;10.00;;
59099;SDS011;44884;52.730;6.964;2024-02-21T01:53:56;18.08;;;10.18;;
59099;SDS011;44884;52.730;6.964;2024-02-21T01:56:23;15.00;;;9.75;;
59099;SDS011;44884;52.730;6.964;2024-02-21T01:58:49;14.98;;;9.85;;
59099;SDS011;44884;52.730;6.964;2024-02-21T02:01:16;13.43;;;9.05;;
59099;SDS011;44884;52.730;6.964;2024-02-21T02:03:43;14.02;;;9.13;;
59099;SDS011;44884;52.730;6.964;2024-02-21T02:06:11;19.05;;;9.25;;
59099;SDS011;44884;52.730;6.964;2024-02-21T02:08:38;16.90;;;10.30;;
59099;SDS011;44884;52.730;6.964;2024-02-21T02:11:04;12.77;;;8.65;;
59099;SDS011;44884;52.730;6.964;2024-02-21T02:13:30;13.82;;;9.25;;
59099;SDS011;44884;52.730;6.964;2024-02-21T02:15:56;14.20;;;9.15;;
59099;SDS011;44884;52.730;6.964;2024-02-21T02:18:22;20.98;;;10.00;;
59099;SDS011;44884;52.730;6.964;2024-02-21T02:20:48;15.40;;;9.35;;
59099;SDS011;44884;52.730;6.964;2024-02-21T02:23:24;12.93;;;8.93;;
59099;SDS011;44884;52.730;6.964;2024-02-21T02:25:50;14.40;;;9.23;;
59099;SDS011;44884;52.730;6.964;2024-02-21T02:28:17;14.68;;;9.07;;
59099;SDS011;44884;52.730;6.964;2024-02-21T02:30:43;15.80;;;9.55;;
59099;SDS011;44884;52.730;6.964;2024-02-21T02:33:09;14.15;;;9.38;;
59099;SDS011;44884;52.730;6.964;2024-02-21T02:35:35;12.95;;;8.82;;
59099;SDS011;44884;52.730;6.964;2024-02-21T02:38:04;13.05;;;8.85;;
59099;SDS011;44884;52.730;6.964;2024-02-21T02:40:31;14.32;;;9.13;;
59099;SDS011;44884;52.730;6.964;2024-02-21T02:42:57;13.88;;;8.65;;
59099;SDS011;44884;52.730;6.964;2024-02-21T02:45:23;18.23;;;10.23;;
59099;SDS011;44884;52.730;6.964;2024-02-21T02:47:51;13.32;;;8.00;;
59099;SDS011;44884;52.730;6.964;2024-02-21T02:50:17;9.52;;;7.28;;
59099;SDS011;44884;52.730;6.964;2024-02-21T02:52:43;14.38;;;9.98;;
59099;SDS011;44884;52.730;6.964;2024-02-21T02:55:09;15.15;;;9.65;;
59099;SDS011;44884;52.730;6.964;2024-02-21T02:57:35;14.45;;;8.57;;
59099;SDS011;44884;52.730;6.964;2024-02-21T03:00:01;13.88;;;9.05;;
59099;SDS011;44884;52.730;6.964;2024-02-21T03:02:28;18.33;;;9.10;;
59099;SDS011;44884;52.730;6.964;2024-02-21T03:04:56;10.07;;;7.22;;
59099;SDS011;44884;52.730;6.964;2024-02-21T03:07:22;15.68;;;9.68;;
59099;SDS011;44884;52.730;6.964;2024-02-21T03:09:48;12.93;;;8.32;;
59099;SDS011;44884;52.730;6.964;2024-02-21T03:12:14;12.05;;;7.82;;
59099;SDS011;44884;52.730;6.964;2024-02-21T03:14:44;12.48;;;8.40;;
59099;SDS011;44884;52.730;6.964;2024-02-21T03:17:10;15.20;;;8.77;;
59099;SDS011;44884;52.730;6.964;2024-02-21T03:19:36;11.65;;;8.75;;
59099;SDS011;44884;52.730;6.964;2024-02-21T03:22:02;15.60;;;8.63;;
59099;SDS011;44884;52.730;6.964;2024-02-21T03:24:28;18.67;;;8.73;;
59099;SDS011;44884;52.730;6.964;2024-02-21T03:26:55;14.40;;;8.90;;
59099;SDS011;44884;52.730;6.964;2024-02-21T03:29:21;14.07;;;8.13;;
59099;SDS011;44884;52.730;6.964;2024-02-21T03:31:47;12.98;;;9.68;;
59099;SDS011;44884;52.730;6.964;2024-02-21T03:34:13;11.05;;;8.48;;
59099;SDS011;44884;52.730;6.964;2024-02-21T03:36:39;13.50;;;8.82;;
59099;SDS011;44884;52.730;6.964;2024-02-21T03:39:05;12.52;;;8.80;;
59099;SDS011;44884;52.730;6.964;2024-02-21T03:41:33;12.00;;;8.70;;
59099;SDS011;44884;52.730;6.964;2024-02-21T03:43:59;12.32;;;8.75;;
59099;SDS011;44884;52.730;6.964;2024-02-21T03:46:25;10.68;;;8.00;;
59099;SDS011;44884;52.730;6.964;2024-02-21T03:48:51;10.68;;;8.00;;
59099;SDS011;44884;52.730;6.964;2024-02-21T03:51:17;13.88;;;7.53;;
59099;SDS011;44884;52.730;6.964;2024-02-21T03:53:43;13.18;;;8.43;;
59099;SDS011;44884;52.730;6.964;2024-02-21T03:56:09;13.13;;;7.82;;
59099;SDS011;44884;52.730;6.964;2024-02-21T03:58:35;17.85;;;8.70;;
59099;SDS011;44884;52.730;6.964;2024-02-21T04:01:01;17.13;;;9.32;;
59099;SDS011;44884;52.730;6.964;2024-02-21T04:03:27;11.40;;;7.78;;
59099;SDS011;44884;52.730;6.964;2024-02-21T04:05:53;11.88;;;8.57;;
59099;SDS011;44884;52.730;6.964;2024-02-21T04:08:19;11.32;;;7.95;;
59099;SDS011;44884;52.730;6.964;2024-02-21T04:10:45;12.73;;;8.18;;
59099;SDS011;44884;52.730;6.964;2024-02-21T04:13:11;14.98;;;8.25;;
59099;SDS011;44884;52.730;6.964;2024-02-21T04:15:37;11.93;;;8.75;;
59099;SDS011;44884;52.730;6.964;2024-02-21T04:18:03;11.82;;;7.95;;
59099;SDS011;44884;52.730;6.964;2024-02-21T04:20:29;11.73;;;8.05;;
59099;SDS011;44884;52.730;6.964;2024-02-21T04:22:56;8.52;;;7.20;;
59099;SDS011;44884;52.730;6.964;2024-02-21T04:25:22;11.85;;;8.20;;
59099;SDS011;44884;52.730;6.964;2024-02-21T04:27:48;12.30;;;8.57;;
59099;SDS011;44884;52.730;6.964;2024-02-21T04:30:14;14.15;;;8.43;;
59099;SDS011;44884;52.730;6.964;2024-02-21T04:32:40;9.57;;;7.40;;
59099;SDS011;44884;52.730;6.964;2024-02-21T04:35:07;10.93;;;7.53;;
59099;SDS011;44884;52.730;6.964;2024-02-21T04:37:33;11.65;;;8.18;;
59099;SDS011;44884;52.730;6.964;2024-02-21T04:39:59;15.27;;;8.60;;
59099;SDS011;44884;52.730;6.964;2024-02-21T04:42:25;13.55;;;7.28;;
59099;SDS011;44884;52.730;6.964;2024-02-21T04:44:51;12.25;;;8.10;;
59099;SDS011;44884;52.730;6.964;2024-02-21T04:47:18;16.08;;;7.82;;
59099;SDS011;44884;52.730;6.964;2024-02-21T04:49:48;12.23;;;8.70;;
59099;SDS011;44884;52.730;6.964;2024-02-21T04:52:14;12.02;;;7.95;;
59099;SDS011;44884;52.730;6.964;2024-02-21T04:54:41;10.82;;;7.68;;
59099;SDS011;44884;52.730;6.964;2024-02-21T04:57:06;14.13;;;7.78;;
59099;SDS011;44884;52.730;6.964;2024-02-21T04:59:35;12.98;;;8.50;;
59099;SDS011;44884;52.730;6.964;2024-02-21T05:02:01;12.75;;;8.18;;
59099;SDS011;44884;52.730;6.964;2024-02-21T05:04:27;13.32;;;8.07;;
59099;SDS011;44884;52.730;6.964;2024-02-21T05:06:53;10.68;;;7.82;;
59099;SDS011;44884;52.730;6.964;2024-02-21T05:09:19;9.70;;;7.60;;
59099;SDS011;44884;52.730;6.964;2024-02-21T05:11:46;12.15;;;7.93;;
59099;SDS011;44884;52.730;6.964;2024-02-21T05:14:12;10.68;;;7.18;;
59099;SDS011;44884;52.730;6.964;2024-02-21T05:16:38;9.40;;;7.40;;
59099;SDS011;44884;52.730;6.964;2024-02-21T05:19:05;11.43;;;6.95;;
59099;SDS011;44884;52.730;6.964;2024-02-21T05:21:31;9.90;;;7.57;;
59099;SDS011;44884;52.730;6.964;2024-02-21T05:23:57;11.10;;;7.28;;
59099;SDS011;44884;52.730;6.964;2024-02-21T05:26:24;11.55;;;7.15;;
59099;SDS011;44884;52.730;6.964;2024-02-21T05:28:50;9.98;;;7.38;;
59099;SDS011;44884;52.730;6.964;2024-02-21T05:31:19;11.07;;;7.15;;
59099;SDS011;44884;52.730;6.964;2024-02-21T05:33:46;9.93;;;6.85;;
59099;SDS011;44884;52.730;6.964;2024-02-21T05:36:12;12.15;;;7.82;;
59099;SDS011;44884;52.730;6.964;2024-02-21T05:38:38;10.95;;;7.88;;
59099;SDS011;44884;52.730;6.964;2024-02-21T05:41:05;12.27;;;7.22;;
59099;SDS011;44884;52.730;6.964;2024-02-21T05:43:31;12.68;;;7.55;;
59099;SDS011;44884;52.730;6.964;2024-02-21T05:45:57;9.32;;;6.72;;
59099;SDS011;44884;52.730;6.964;2024-02-21T05:48:24;9.15;;;6.47;;
59099;SDS011;44884;52.730;6.964;2024-02-21T05:50:50;14.45;;;6.93;;
59099;SDS011;44884;52.730;6.964;2024-02-21T05:53:16;8.90;;;6.65;;
59099;SDS011;44884;52.730;6.964;2024-02-21T05:55:42;9.25;;;7.07;;
59099;SDS011;44884;52.730;6.964;2024-02-21T05:58:09;10.20;;;6.72;;
59099;SDS011;44884;52.730;6.964;2024-02-21T06:00:38;15.57;;;8.25;;
59099;SDS011;44884;52.730;6.964;2024-02-21T06:03:05;11.57;;;8.10;;
59099;SDS011;44884;52.730;6.964;2024-02-21T06:05:36;11.20;;;8.20;;
59099;SDS011;44884;52.730;6.964;2024-02-21T06:08:02;10.60;;;7.20;;
59099;SDS011;44884;52.730;6.964;2024-02-21T06:10:29;10.48;;;7.55;;
59099;SDS011;44884;52.730;6.964;2024-02-21T06:12:55;10.93;;;7.80;;
59099;SDS011;44884;52.730;6.964;2024-02-21T06:15:21;12.85;;;7.60;;
59099;SDS011;44884;52.730;6.964;2024-02-21T06:17:47;10.20;;;7.30;;
59099;SDS011;44884;52.730;6.964;2024-02-21T06:20:13;9.75;;;6.50;;
59099;SDS011;44884;52.730;6.964;2024-02-21T06:22:39;11.88;;;7.45;;
59099;SDS011;44884;52.730;6.964;2024-02-21T06:25:05;9.30;;;7.15;;
59099;SDS011;44884;52.730;6.964;2024-02-21T06:27:31;9.75;;;7.20;;
59099;SDS011;44884;52.730;6.964;2024-02-21T06:29:57;12.10;;;8.05;;
59099;SDS011;44884;52.730;6.964;2024-02-21T06:32:23;9.32;;;7.38;;
59099;SDS011;44884;52.730;6.964;2024-02-21T06:34:49;12.18;;;7.13;;
59099;SDS011;44884;52.730;6.964;2024-02-21T06:37:15;10.88;;;7.60;;
59099;SDS011;44884;52.730;6.964;2024-02-21T06:39:41;11.10;;;7.50;;
59099;SDS011;44884;52.730;6.964;2024-02-21T06:42:07;12.18;;;7.07;;
59099;SDS011;44884;52.730;6.964;2024-02-21T06:44:34;11.75;;;7.97;;
59099;SDS011;44884;52.730;6.964;2024-02-21T06:47:05;14.20;;;8.50;;
59099;SDS011;44884;52.730;6.964;2024-02-21T06:49:31;11.15;;;8.75;;
59099;SDS011;44884;52.730;6.964;2024-02-21T06:51:57;15.32;;;7.25;;
59099;SDS011;44884;52.730;6.964;2024-02-21T06:54:23;11.25;;;7.80;;
59099;SDS011;44884;52.730;6.964;2024-02-21T06:56:49;14.50;;;8.45;;
59099;SDS011;44884;52.730;6.964;2024-02-21T06:59:15;12.05;;;8.20;;
59099;SDS011;44884;52.730;6.964;2024-02-21T07:01:45;11.10;;;8.10;;
59099;SDS011;44884;52.730;6.964;2024-02-21T07:04:11;11.52;;;7.32;;
59099;SDS011;44884;52.730;6.964;2024-02-21T07:06:37;10.90;;;7.45;;
59099;SDS011;44884;52.730;6.964;2024-02-21T07:09:03;8.55;;;7.32;;
59099;SDS011;44884;52.730;6.964;2024-02-21T07:11:29;12.85;;;8.15;;
59099;SDS011;44884;52.730;6.964;2024-02-21T07:13:55;12.98;;;8.30;;
59099;SDS011;44884;52.730;6.964;2024-02-21T07:16:21;14.15;;;8.07;;
59099;SDS011;44884;52.730;6.964;2024-02-21T07:18:47;10.25;;;7.43;;
59099;SDS011;44884;52.730;6.964;2024-02-21T07:21:13;12.48;;;8.25;;
59099;SDS011;44884;52.730;6.964;2024-02-21T07:23:43;12.85;;;7.60;;
59099;SDS011;44884;52.730;6.964;2024-02-21T07:26:09;10.43;;;7.70;;
59099;SDS011;44884;52.730;6.964;2024-02-21T07:28:35;11.60;;;7.53;;
59099;SDS011;44884;52.730;6.964;2024-02-21T07:31:01;15.90;;;8.23;;
59099;SDS011;44884;52.730;6.964;2024-02-21T07:33:27;16.27;;;8.43;;
59099;SDS011;44884;52.730;6.964;2024-02-21T07:35:55;15.73;;;9.13;;
59099;SDS011;44884;52.730;6.964;2024-02-21T07:38:21;13.23;;;8.32;;
59099;SDS011;44884;52.730;6.964;2024-02-21T07:40:47;10.30;;;7.88;;
59099;SDS011;44884;52.730;6.964;2024-02-21T07:43:13;11.30;;;7.50;;
59099;SDS011;44884;52.730;6.964;2024-02-21T07:45:39;15.90;;;8.15;;
59099;SDS011;44884;52.730;6.964;2024-02-21T07:48:05;14.27;;;8.15;;
59099;SDS011;44884;52.730;6.964;2024-02-21T07:50:32;14.25;;;7.88;;
59099;SDS011;44884;52.730;6.964;2024-02-21T07:52:58;11.02;;;7.97;;
59099;SDS011;44884;52.730;6.964;2024-02-21T07:55:24;15.25;;;8.40;;
59099;SDS011;44884;52.730;6.964;2024-02-21T07:57:50;15.98;;;8.95;;
59099;SDS011;44884;52.730;6.964;2024-02-21T08:00:16;16.30;;;8.82;;
59099;SDS011;44884;52.730;6.964;2024-02-21T08:02:46;12.20;;;8.10;;
59099;SDS011;44884;52.730;6.964;2024-02-21T08:05:12;16.83;;;8.98;;
59099;SDS011;44884;52.730;6.964;2024-02-21T08:07:38;13.30;;;8.32;;
59099;SDS011;44884;52.730;6.964;2024-02-21T08:10:04;16.77;;;8.55;;
59099;SDS011;44884;52.730;6.964;2024-02-21T08:12:33;15.05;;;9.85;;
59099;SDS011;44884;52.730;6.964;2024-02-21T08:14:59;12.55;;;8.07;;
59099;SDS011;44884;52.730;6.964;2024-02-21T08:17:25;12.45;;;9.05;;
59099;SDS011;44884;52.730;6.964;2024-02-21T08:19:51;15.45;;;9.10;;
59099;SDS011;44884;52.730;6.964;2024-02-21T08:22:17;13.85;;;9.00;;
59099;SDS011;44884;52.730;6.964;2024-02-21T08:24:43;12.48;;;8.77;;
59099;SDS011;44884;52.730;6.964;2024-02-21T08:27:09;11.27;;;8.60;;
59099;SDS011;44884;52.730;6.964;2024-02-21T08:29:35;12.55;;;8.60;;
59099;SDS011;44884;52.730;6.964;2024-02-21T08:32:01;12.63;;;8.35;;
59099;SDS011;44884;52.730;6.964;2024-02-21T08:34:27;10.95;;;7.75;;
59099;SDS011;44884;52.730;6.964;2024-02-21T08:36:55;11.07;;;7.80;;
59099;SDS011;44884;52.730;6.964;2024-02-21T08:39:21;12.98;;;7.72;;
59099;SDS011;44884;52.730;6.964;2024-02-21T08:41:47;14.10;;;9.25;;
59099;SDS011;44884;52.730;6.964;2024-02-21T08:44:13;13.82;;;10.15;;
59099;SDS011;44884;52.730;6.964;2024-02-21T08:46:39;13.30;;;8.95;;
59099;SDS011;44884;52.730;6.964;2024-02-21T08:49:06;15.95;;;9.48;;
59099;SDS011;44884;52.730;6.964;2024-02-21T08:51:32;18.90;;;9.75;;
59099;SDS011;44884;52.730;6.964;2024-02-21T08:53:58;13.88;;;9.82;;
59099;SDS011;44884;52.730;6.964;2024-02-21T08:56:26;18.27;;;9.80;;
59099;SDS011;44884;52.730;6.964;2024-02-21T08:58:52;12.00;;;8.68;;
59099;SDS011;44884;52.730;6.964;2024-02-21T09:01:17;12.70;;;9.35;;
59099;SDS011;44884;52.730;6.964;2024-02-21T09:03:44;14.85;;;9.98;;
59099;SDS011;44884;52.730;6.964;2024-02-21T09:06:11;13.13;;;8.68;;
59099;SDS011;44884;52.730;6.964;2024-02-21T09:08:39;13.75;;;9.15;;
59099;SDS011;44884;52.730;6.964;2024-02-21T09:11:06;13.25;;;8.95;;
59099;SDS011;44884;52.730;6.964;2024-02-21T09:13:32;11.45;;;8.95;;
59099;SDS011;44884;52.730;6.964;2024-02-21T09:15:58;11.07;;;7.65;;
59099;SDS011;44884;52.730;6.964;2024-02-21T09:18:24;14.85;;;9.82;;
59099;SDS011;44884;52.730;6.964;2024-02-21T09:20:50;16.23;;;9.38;;
59099;SDS011;44884;52.730;6.964;2024-02-21T09:23:16;11.88;;;8.50;;
59099;SDS011;44884;52.730;6.964;2024-02-21T09:25:44;12.85;;;9.65;;
59099;SDS011;44884;52.730;6.964;2024-02-21T09:28:11;14.38;;;9.27;;
59099;SDS011;44884;52.730;6.964;2024-02-21T09:30:38;13.40;;;9.27;;
59099;SDS011;44884;52.730;6.964;2024-02-21T09:33:04;13.15;;;9.48;;
59099;SDS011;44884;52.730;6.964;2024-02-21T09:35:30;13.32;;;8.85;;
59099;SDS011;44884;52.730;6.964;2024-02-21T09:37:58;14.63;;;8.40;;
59099;SDS011;44884;52.730;6.964;2024-02-21T09:40:24;12.50;;;9.15;;
59099;SDS011;44884;52.730;6.964;2024-02-21T09:42:53;12.98;;;9.52;;
59099;SDS011;44884;52.730;6.964;2024-02-21T09:45:21;22.67;;;10.02;;
59099;SDS011;44884;52.730;6.964;2024-02-21T09:50:20;16.58;;;11.23;;
59099;SDS011;44884;52.730;6.964;2024-02-21T09:52:47;14.25;;;8.90;;
59099;SDS011;44884;52.730;6.964;2024-02-21T09:55:14;16.38;;;10.93;;
59099;SDS011;44884;52.730;6.964;2024-02-21T09:57:41;14.20;;;9.38;;
59099;SDS011;44884;52.730;6.964;2024-02-21T10:00:07;14.82;;;10.43;;
59099;SDS011;44884;52.730;6.964;2024-02-21T10:02:33;16.83;;;10.73;;
59099;SDS011;44884;52.730;6.964;2024-02-21T10:04:59;16.67;;;10.00;;
59099;SDS011;44884;52.730;6.964;2024-02-21T10:07:25;15.38;;;9.95;;
59099;SDS011;44884;52.730;6.964;2024-02-21T10:10:00;17.88;;;9.95;;
59099;SDS011;44884;52.730;6.964;2024-02-21T10:12:26;21.83;;;10.25;;
59099;SDS011;44884;52.730;6.964;2024-02-21T10:15:05;16.27;;;10.32;;
59099;SDS011;44884;52.730;6.964;2024-02-21T10:17:34;17.30;;;11.25;;
59099;SDS011;44884;52.730;6.964;2024-02-21T10:20:08;18.63;;;10.90;;
59099;SDS011;44884;52.730;6.964;2024-02-21T10:22:34;14.63;;;9.70;;
59099;SDS011;44884;52.730;6.964;2024-02-21T10:25:13;17.85;;;11.05;;
59099;SDS011;44884;52.730;6.964;2024-02-21T10:27:40;15.07;;;10.00;;
59099;SDS011;44884;52.730;6.964;2024-02-21T10:30:15;20.38;;;11.13;;
59099;SDS011;44884;52.730;6.964;2024-02-21T10:32:50;18.67;;;12.32;;
59099;SDS011;44884;52.730;6.964;2024-02-21T10:35:29;15.25;;;10.27;;
59099;SDS011;44884;52.730;6.964;2024-02-21T10:37:58;15.57;;;9.75;;
59099;SDS011;44884;52.730;6.964;2024-02-21T10:40:25;16.48;;;10.30;;
59099;SDS011;44884;52.730;6.964;2024-02-21T10:42:58;16.75;;;9.48;;
59099;SDS011;44884;52.730;6.964;2024-02-21T10:45:29;17.90;;;10.23;;
59099;SDS011;44884;52.730;6.964;2024-02-21T10:47:56;17.20;;;10.55;;
59099;SDS011;44884;52.730;6.964;2024-02-21T10:50:27;20.13;;;9.73;;
59099;SDS011;44884;52.730;6.964;2024-02-21T10:52:58;13.63;;;9.88;;
59099;SDS011;44884;52.730;6.964;2024-02-21T10:55:38;13.55;;;10.05;;
59099;SDS011;44884;52.730;6.964;2024-02-21T10:58:04;16.05;;;9.85;;
59099;SDS011;44884;52.730;6.964;2024-02-21T11:00:30;13.73;;;10.13;;
59099;SDS011;44884;52.730;6.964;2024-02-21T11:02:57;15.18;;;9.40;;
59099;SDS011;44884;52.730;6.964;2024-02-21T11:05:24;17.98;;;10.40;;
59099;SDS011;44884;52.730;6.964;2024-02-21T11:07:50;14.82;;;8.88;;
59099;SDS011;44884;52.730;6.964;2024-02-21T11:10:20;14.50;;;9.10;;
59099;SDS011;44884;52.730;6.964;2024-02-21T11:12:48;18.90;;;9.82;;
59099;SDS011;44884;52.730;6.964;2024-02-21T11:15:14;15.18;;;9.65;;
59099;SDS011;44884;52.730;6.964;2024-02-21T11:17:40;13.30;;;9.65;;
59099;SDS011;44884;52.730;6.964;2024-02-21T11:20:13;15.73;;;8.68;;
59099;SDS011;44884;52.730;6.964;2024-02-21T11:22:42;14.93;;;9.93;;
59099;SDS011;44884;52.730;6.964;2024-02-21T11:25:08;13.90;;;9.10;;
59099;SDS011;44884;52.730;6.964;2024-02-21T11:27:36;13.25;;;8.45;;
59099;SDS011;44884;52.730;6.964;2024-02-21T11:30:04;15.23;;;8.55;;
59099;SDS011;44884;52.730;6.964;2024-02-21T11:32:31;12.52;;;9.02;;
59099;SDS011;44884;52.730;6.964;2024-02-21T11:35:01;15.23;;;9.48;;
59099;SDS011;44884;52.730;6.964;2024-02-21T11:37:31;13.00;;;9.07;;
59099;SDS011;44884;52.730;6.964;2024-02-21T11:40:04;15.65;;;8.30;;
59099;SDS011;44884;52.730;6.964;2024-02-21T11:42:32;11.57;;;8.43;;
59099;SDS011;44884;52.730;6.964;2024-02-21T11:44:59;21.63;;;9.00;;
59099;SDS011;44884;52.730;6.964;2024-02-21T11:47:25;11.05;;;7.40;;
59099;SDS011;44884;52.730;6.964;2024-02-21T11:49:51;13.27;;;8.80;;
59099;SDS011;44884;52.730;6.964;2024-02-21T11:52:24;15.40;;;9.32;;
59099;SDS011;44884;52.730;6.964;2024-02-21T11:54:50;13.27;;;9.23;;
59099;SDS011;44884;52.730;6.964;2024-02-21T11:57:17;9.80;;;7.97;;
59099;SDS011;44884;52.730;6.964;2024-02-21T11:59:44;14.45;;;9.13;;
59099;SDS011;44884;52.730;6.964;2024-02-21T12:02:11;13.35;;;9.10;;
59099;SDS011;44884;52.730;6.964;2024-02-21T12:04:37;12.65;;;7.75;;
59099;SDS011;44884;52.730;6.964;2024-02-21T12:07:04;12.80;;;8.77;;
59099;SDS011;44884;52.730;6.964;2024-02-21T12:09:30;16.50;;;8.75;;
59099;SDS011;44884;52.730;6.964;2024-02-21T12:11:57;11.10;;;8.07;;
59099;SDS011;44884;52.730;6.964;2024-02-21T12:14:24;11.05;;;7.93;;
59099;SDS011;44884;52.730;6.964;2024-02-21T12:16:50;10.68;;;7.72;;
59099;SDS011;44884;52.730;6.964;2024-02-21T12:19:16;13.00;;;8.05;;
59099;SDS011;44884;52.730;6.964;2024-02-21T12:21:42;13.10;;;7.90;;
59099;SDS011;44884;52.730;6.964;2024-02-21T12:26:39;11.65;;;7.65;;
59099;SDS011;44884;52.730;6.964;2024-02-21T12:29:05;10.23;;;7.72;;
59099;SDS011;44884;52.730;6.964;2024-02-21T12:31:34;9.25;;;7.22;;
59099;SDS011;44884;52.730;6.964;2024-02-21T12:34:00;11.65;;;7.63;;
59099;SDS011;44884;52.730;6.964;2024-02-21T12:36:26;10.57;;;7.35;;
59099;SDS011;44884;52.730;6.964;2024-02-21T12:38:52;11.32;;;7.95;;
59099;SDS011;44884;52.730;6.964;2024-02-21T12:41:18;10.10;;;7.57;;
59099;SDS011;44884;52.730;6.964;2024-02-21T12:43:44;14.40;;;7.85;;
59099;SDS011;44884;52.730;6.964;2024-02-21T12:46:10;12.63;;;7.82;;
59099;SDS011;44884;52.730;6.964;2024-02-21T12:48:36;9.35;;;6.80;;
59099;SDS011;44884;52.730;6.964;2024-02-21T12:51:02;13.93;;;7.57;;
59099;SDS011;44884;52.730;6.964;2024-02-21T12:53:29;10.45;;;7.00;;
59099;SDS011;44884;52.730;6.964;2024-02-21T12:55:55;9.80;;;6.60;;
59099;SDS011;44884;52.730;6.964;2024-02-21T12:58:21;9.25;;;6.88;;
59099;SDS011;44884;52.730;6.964;2024-02-21T13:00:47;8.80;;;6.68;;
59099;SDS011;44884;52.730;6.964;2024-02-21T13:03:14;9.77;;;6.40;;
59099;SDS011;44884;52.730;6.964;2024-02-21T13:05:40;8.07;;;5.95;;
59099;SDS011;44884;52.730;6.964;2024-02-21T13:08:06;7.78;;;6.15;;
59099;SDS011;44884;52.730;6.964;2024-02-21T13:10:32;12.55;;;6.30;;
59099;SDS011;44884;52.730;6.964;2024-02-21T13:12:59;11.20;;;6.72;;
59099;SDS011;44884;52.730;6.964;2024-02-21T13:15:25;10.82;;;6.68;;
59099;SDS011;44884;52.730;6.964;2024-02-21T13:17:53;10.25;;;6.82;;
59099;SDS011;44884;52.730;6.964;2024-02-21T13:20:19;9.13;;;6.40;;
59099;SDS011;44884;52.730;6.964;2024-02-21T13:22:46;11.65;;;6.50;;
59099;SDS011;44884;52.730;6.964;2024-02-21T13:25:12;9.02;;;6.13;;
59099;SDS011;44884;52.730;6.964;2024-02-21T13:27:43;9.63;;;6.75;;
59099;SDS011;44884;52.730;6.964;2024-02-21T13:30:10;9.77;;;5.88;;
59099;SDS011;44884;52.730;6.964;2024-02-21T13:32:36;9.98;;;6.07;;
59099;SDS011;44884;52.730;6.964;2024-02-21T13:35:03;8.45;;;6.28;;
59099;SDS011;44884;52.730;6.964;2024-02-21T13:37:29;8.07;;;6.05;;
59099;SDS011;44884;52.730;6.964;2024-02-21T13:39:55;10.63;;;6.65;;
59099;SDS011;44884;52.730;6.964;2024-02-21T13:42:21;9.02;;;6.22;;
59099;SDS011;44884;52.730;6.964;2024-02-21T13:44:47;10.63;;;6.18;;
59099;SDS011;44884;52.730;6.964;2024-02-21T13:47:13;7.53;;;6.10;;
59099;SDS011;44884;52.730;6.964;2024-02-21T13:49:40;10.10;;;6.35;;
59099;SDS011;44884;52.730;6.964;2024-02-21T13:52:06;9.55;;;6.32;;
59099;SDS011;44884;52.730;6.964;2024-02-21T13:54:32;7.82;;;5.65;;
59099;SDS011;44884;52.730;6.964;2024-02-21T13:56:58;8.10;;;5.90;;
59099;SDS011;44884;52.730;6.964;2024-02-21T13:59:24;10.18;;;6.80;;
59099;SDS011;44884;52.730;6.964;2024-02-21T14:01:51;9.48;;;5.75;;
59099;SDS011;44884;52.730;6.964;2024-02-21T14:04:17;8.68;;;5.82;;
59099;SDS011;44884;52.730;6.964;2024-02-21T14:06:43;11.50;;;6.40;;
59099;SDS011;44884;52.730;6.964;2024-02-21T14:09:09;13.85;;;7.22;;
59099;SDS011;44884;52.730;6.964;2024-02-21T14:11:36;9.68;;;6.60;;
59099;SDS011;44884;52.730;6.964;2024-02-21T14:14:03;13.90;;;7.28;;
59099;SDS011;44884;52.730;6.964;2024-02-21T14:16:30;9.90;;;6.10;;
59099;SDS011;44884;52.730;6.964;2024-02-21T14:18:56;19.58;;;6.88;;
59099;SDS011;44884;52.730;6.964;2024-02-21T14:21:22;14.07;;;7.72;;
59099;SDS011;44884;52.730;6.964;2024-02-21T14:23:48;9.68;;;6.40;;
59099;SDS011;44884;52.730;6.964;2024-02-21T14:26:14;7.57;;;6.00;;
59099;SDS011;44884;52.730;6.964;2024-02-21T14:28:40;11.20;;;6.85;;
59099;SDS011;44884;52.730;6.964;2024-02-21T14:31:07;8.18;;;5.78;;
59099;SDS011;44884;52.730;6.964;2024-02-21T14:33:36;6.97;;;5.85;;
59099;SDS011;44884;52.730;6.964;2024-02-21T14:36:02;9.35;;;5.93;;
59099;SDS011;44884;52.730;6.964;2024-02-21T14:38:28;8.38;;;6.07;;